Time;durP1;ratioP1;P1;durP2;ratioP2;P2;SDS_P1;SDS_P2;PMS_P1;PMS_P2;Temp;Humidity;BMP_temperature;BMP_pressure;BME280_temperature;BME280_humidity;BME280_pressure;Samples;Min_cycle;Max_cycle;Signal;HPM_P1;HPM_P2
2023/10/19 00:00:56;;;;;;;4.70;1.98;;;12.20;99.90;;;;;;5137000;27;20817;-52
2023/10/19 00:03:26;;;;;;;3.80;1.98;;;12.30;99.90;;;;;;5136371;27;20530;-56
2023/10/19 00:05:55;;;;;;;5.05;2.45;;;12.30;99.90;;;;;;5136767;27;20422;-50
2023/10/19 00:08:23;;;;;;;4.63;2.13;;;12.30;99.90;;;;;;5135864;27;20418;-52
2023/10/19 00:10:55;;;;;;;3.65;1.98;;;12.20;99.90;;;;;;5135989;27;20410;-55
2023/10/19 00:13:22;;;;;;;4.20;2.40;;;12.20;99.90;;;;;;5136914;27;20445;-51
2023/10/19 00:15:49;;;;;;;5.68;2.20;;;12.10;99.90;;;;;;5136678;27;20410;-49
2023/10/19 00:18:24;;;;;;;4.70;2.30;;;12.20;99.90;;;;;;5136969;27;20471;-55
2023/10/19 00:20:54;;;;;;;4.60;1.60;;;12.20;99.90;;;;;;5136553;27;20430;-56
2023/10/19 00:23:31;;;;;;;2.60;1.60;;;12.20;99.90;;;;;;5137107;27;20526;-55
2023/10/19 00:25:57;;;;;;;2.83;1.63;;;12.20;99.90;;;;;;5136362;27;20725;-55
2023/10/19 00:28:26;;;;;;;2.40;1.50;;;12.30;99.90;;;;;;5137360;27;20415;-55
2023/10/19 00:30:53;;;;;;;2.63;1.30;;;12.30;99.90;;;;;;5136439;27;20419;-55
2023/10/19 00:33:21;;;;;;;2.33;1.30;;;12.40;99.90;;;;;;5136310;27;20414;-56
2023/10/19 00:35:58;;;;;;;2.63;1.10;;;12.50;99.90;;;;;;5136146;27;20422;-55
2023/10/19 00:38:39;;;;;;;2.25;1.00;;;12.50;99.90;;;;;;5136497;27;20563;-56
2023/10/19 00:41:11;;;;;;;2.20;0.90;;;12.60;99.90;;;;;;5134508;27;20437;-53
2023/10/19 00:43:43;;;;;;;1.55;0.90;;;12.60;99.90;;;;;;5136275;27;20501;-56
2023/10/19 00:46:14;;;;;;;2.10;0.90;;;12.70;99.90;;;;;;5135878;27;20418;-56
2023/10/19 00:48:45;;;;;;;1.30;0.90;;;12.70;99.90;;;;;;5136175;27;20730;-54
2023/10/19 00:51:26;;;;;;;1.40;1.00;;;12.70;99.90;;;;;;5134811;27;20413;-54
2023/10/19 00:53:56;;;;;;;2.60;0.80;;;12.70;99.90;;;;;;5134432;27;20426;-56
2023/10/19 00:56:26;;;;;;;1.30;0.90;;;12.70;99.90;;;;;;5133318;27;20425;-52
2023/10/19 00:59:06;;;;;;;1.77;0.80;;;12.80;99.90;;;;;;5134516;27;20422;-55
2023/10/19 01:01:40;;;;;;;1.55;0.90;;;12.80;99.90;;;;;;5132778;27;20703;-53
2023/10/19 01:04:08;;;;;;;2.00;0.90;;;12.90;99.90;;;;;;5134029;27;20841;-53
2023/10/19 01:06:35;;;;;;;1.50;0.90;;;12.80;99.90;;;;;;5133884;27;20775;-55
2023/10/19 01:09:04;;;;;;;1.30;0.80;;;12.80;99.90;;;;;;5135195;27;20415;-55
2023/10/19 01:11:34;;;;;;;1.80;0.70;;;12.80;99.90;;;;;;5135817;27;20418;-54
2023/10/19 01:14:19;;;;;;;2.40;0.80;;;12.80;99.90;;;;;;5134762;27;20707;-54
2023/10/19 01:16:48;;;;;;;1.30;0.70;;;12.80;99.90;;;;;;5135743;27;20513;-54
2023/10/19 01:19:18;;;;;;;2.30;0.70;;;12.90;99.90;;;;;;5136057;27;20462;-55
2023/10/19 01:21:50;;;;;;;1.30;0.70;;;13.00;99.90;;;;;;5135850;27;20430;-57
2023/10/19 01:24:21;;;;;;;1.20;0.70;;;13.10;99.90;;;;;;5134893;27;20419;-53
2023/10/19 01:26:49;;;;;;;1.10;0.70;;;13.10;99.90;;;;;;5135254;28;20730;-56
2023/10/19 01:29:17;;;;;;;1.58;0.80;;;13.20;99.90;;;;;;5135945;28;20422;-55
2023/10/19 01:31:55;;;;;;;1.52;0.70;;;13.20;99.90;;;;;;5135440;28;20493;-55
2023/10/19 01:34:26;;;;;;;1.35;0.70;;;13.20;99.90;;;;;;5134896;28;20429;-54
2023/10/19 01:36:54;;;;;;;1.85;0.80;;;13.30;99.90;;;;;;5134392;28;20406;-56
2023/10/19 01:39:22;;;;;;;1.90;0.90;;;13.20;99.90;;;;;;5135644;28;20859;-56
2023/10/19 01:41:50;;;;;;;1.33;0.70;;;13.30;99.90;;;;;;5135552;28;20433;-56
2023/10/19 01:44:20;;;;;;;2.17;0.80;;;13.30;99.90;;;;;;5135820;28;20521;-55
2023/10/19 01:46:48;;;;;;;2.90;0.80;;;13.30;99.90;;;;;;5135871;28;20491;-56
2023/10/19 01:49:25;;;;;;;1.40;0.80;;;13.30;99.90;;;;;;5135939;28;20422;-54
2023/10/19 01:51:52;;;;;;;2.10;0.80;;;13.30;99.90;;;;;;5135799;28;20886;-55
2023/10/19 01:54:22;;;;;;;1.90;0.80;;;13.40;99.90;;;;;;5134953;28;20424;-54
2023/10/19 01:56:51;;;;;;;1.17;0.80;;;13.40;99.90;;;;;;5135222;28;20713;-55
2023/10/19 01:59:18;;;;;;;2.10;0.70;;;13.30;99.90;;;;;;5134398;28;20434;-55
2023/10/19 02:01:45;;;;;;;1.95;0.85;;;13.40;99.90;;;;;;5135255;28;20849;-53
2023/10/19 02:04:13;;;;;;;1.50;0.70;;;13.30;99.90;;;;;;5135293;28;20418;-55
2023/10/19 02:06:41;;;;;;;1.60;0.80;;;13.40;99.90;;;;;;5135095;28;20409;-51
2023/10/19 02:09:17;;;;;;;1.60;0.70;;;13.40;99.90;;;;;;5134437;28;20475;-54
2023/10/19 02:11:46;;;;;;;1.60;0.68;;;13.40;99.90;;;;;;5136424;27;20539;-52
2023/10/19 02:14:14;;;;;;;2.60;0.80;;;13.40;99.90;;;;;;5139411;27;20695;-55
2023/10/19 02:16:43;;;;;;;1.80;0.80;;;13.50;99.90;;;;;;5138991;27;20422;-55
2023/10/19 02:19:09;;;;;;;1.80;0.80;;;13.50;99.90;;;;;;5138816;27;20422;-56
2023/10/19 02:21:39;;;;;;;1.30;0.80;;;13.60;99.90;;;;;;5139358;27;20759;-54
2023/10/19 02:24:07;;;;;;;2.20;0.80;;;13.50;99.90;;;;;;5139565;27;20896;-53
2023/10/19 02:26:35;;;;;;;1.60;0.80;;;13.60;99.90;;;;;;5139058;27;20425;-56
2023/10/19 02:29:07;;;;;;;2.10;0.90;;;13.60;99.90;;;;;;5137589;27;20518;-56
2023/10/19 02:31:37;;;;;;;1.20;0.80;;;13.50;99.90;;;;;;5138385;27;20420;-56
2023/10/19 02:34:04;;;;;;;1.10;0.70;;;13.50;99.90;;;;;;5138597;27;20422;-56
2023/10/19 02:36:33;;;;;;;1.63;0.80;;;13.50;99.90;;;;;;5137466;27;20449;-56
2023/10/19 02:39:07;;;;;;;1.80;0.70;;;13.50;99.90;;;;;;5135868;27;20449;-55
2023/10/19 02:41:35;;;;;;;1.20;0.70;;;13.50;99.90;;;;;;5138721;27;20521;-56
2023/10/19 02:44:07;;;;;;;1.40;0.80;;;13.40;99.90;;;;;;5139076;27;20457;-56
2023/10/19 02:46:38;;;;;;;1.60;0.70;;;13.40;99.90;;;;;;5138933;27;20422;-56
2023/10/19 02:49:10;;;;;;;1.60;0.70;;;13.30;99.90;;;;;;5138248;27;20461;-55
2023/10/19 02:51:37;;;;;;;1.10;0.70;;;13.30;99.90;;;;;;5138469;27;20813;-54
2023/10/19 02:54:04;;;;;;;1.27;0.80;;;13.30;99.90;;;;;;5138625;27;20446;-55
2023/10/19 02:56:31;;;;;;;1.20;0.77;;;13.30;99.90;;;;;;5138624;27;20429;-52
2023/10/19 02:59:03;;;;;;;3.10;0.70;;;13.30;99.90;;;;;;5138478;27;20483;-54
2023/10/19 03:01:33;;;;;;;1.20;0.70;;;13.20;99.90;;;;;;5138145;27;20776;-55
2023/10/19 03:04:04;;;;;;;2.70;0.70;;;13.20;99.90;;;;;;5137173;27;20440;-53
2023/10/19 03:06:33;;;;;;;1.08;0.60;;;13.10;99.90;;;;;;5136685;27;20869;-55
2023/10/19 03:09:02;;;;;;;2.63;0.70;;;13.10;99.90;;;;;;5134654;27;20419;-56
2023/10/19 03:11:29;;;;;;;1.70;0.60;;;13.10;99.90;;;;;;5136500;27;20419;-56
2023/10/19 03:13:57;;;;;;;2.00;0.60;;;13.10;99.90;;;;;;5136605;27;20422;-54
2023/10/19 03:16:24;;;;;;;1.20;0.80;;;13.10;99.90;;;;;;5136533;27;20418;-56
2023/10/19 03:18:51;;;;;;;1.20;0.70;;;13.10;99.90;;;;;;5136700;27;20417;-56
2023/10/19 03:21:19;;;;;;;0.87;0.50;;;13.00;99.90;;;;;;5137445;27;20426;-55
2023/10/19 03:23:46;;;;;;;1.92;0.70;;;13.00;99.90;;;;;;5135980;27;20427;-55
2023/10/19 03:26:23;;;;;;;2.07;0.70;;;13.00;99.90;;;;;;5136496;27;20418;-56
2023/10/19 03:28:54;;;;;;;1.27;0.70;;;12.90;99.90;;;;;;5136239;27;20430;-56
2023/10/19 03:31:23;;;;;;;0.90;0.70;;;12.90;99.90;;;;;;5136213;27;20418;-56
2023/10/19 03:33:53;;;;;;;1.10;0.70;;;12.90;99.90;;;;;;5135750;27;20418;-53
2023/10/19 03:36:23;;;;;;;1.50;0.70;;;12.90;99.90;;;;;;5136138;27;20414;-56
2023/10/19 03:38:51;;;;;;;1.35;0.68;;;12.90;99.90;;;;;;5135967;27;20426;-52
2023/10/19 03:41:21;;;;;;;1.90;0.68;;;12.90;99.90;;;;;;5130881;27;20860;-55
2023/10/19 03:43:49;;;;;;;2.40;0.73;;;12.90;99.90;;;;;;5137329;27;20422;-56
2023/10/19 03:46:22;;;;;;;1.10;0.70;;;12.90;99.90;;;;;;5137664;27;20755;-50
2023/10/19 03:48:50;;;;;;;1.20;0.68;;;12.80;99.90;;;;;;5137650;27;20487;-53
2023/10/19 03:51:17;;;;;;;1.17;0.60;;;12.80;99.90;;;;;;5137205;27;20406;-57
2023/10/19 03:53:53;;;;;;;1.20;0.70;;;12.90;99.90;;;;;;5137413;27;20432;-54
2023/10/19 03:56:21;;;;;;;1.40;0.70;;;12.90;99.90;;;;;;5137332;27;20422;-57
2023/10/19 03:58:50;;;;;;;2.50;0.70;;;12.90;99.90;;;;;;5137576;27;20429;-58
2023/10/19 04:01:19;;;;;;;3.13;0.70;;;12.90;99.90;;;;;;5136565;27;20857;-56
2023/10/19 04:03:49;;;;;;;1.00;0.70;;;12.90;99.90;;;;;;5134884;27;20504;-56
2023/10/19 04:06:16;;;;;;;1.00;0.60;;;13.00;99.90;;;;;;5136830;27;20426;-56
2023/10/19 04:08:45;;;;;;;1.90;0.70;;;13.00;99.90;;;;;;5137251;27;20422;-58
2023/10/19 04:11:21;;;;;;;1.30;0.70;;;13.00;99.90;;;;;;5135196;27;20466;-58
2023/10/19 04:13:52;;;;;;;1.93;0.60;;;13.00;99.90;;;;;;5134816;27;20430;-58
2023/10/19 04:16:21;;;;;;;0.90;0.50;;;13.00;99.90;;;;;;5134406;27;20430;-58
2023/10/19 04:18:49;;;;;;;1.77;0.70;;;13.10;99.90;;;;;;5134431;27;20406;-59
2023/10/19 04:21:17;;;;;;;1.00;0.60;;;13.20;99.90;;;;;;5133265;27;20466;-57
2023/10/19 04:23:46;;;;;;;2.60;0.70;;;13.20;99.90;;;;;;5133350;27;20507;-58
2023/10/19 04:26:18;;;;;;;0.90;0.50;;;13.30;99.90;;;;;;5135034;27;20426;-59
2023/10/19 04:28:49;;;;;;;1.13;0.60;;;13.30;99.90;;;;;;5135053;27;20410;-57
2023/10/19 04:31:18;;;;;;;1.08;0.60;;;13.40;99.90;;;;;;5135465;27;20761;-56
2023/10/19 04:33:47;;;;;;;1.55;0.68;;;13.40;99.90;;;;;;5135810;27;20410;-58
2023/10/19 04:36:21;;;;;;;2.10;0.70;;;13.50;99.90;;;;;;5135172;27;20526;-58
2023/10/19 04:38:48;;;;;;;1.00;0.55;;;13.50;99.90;;;;;;5133807;27;20442;-58
2023/10/19 04:41:16;;;;;;;1.60;0.60;;;13.50;99.90;;;;;;5133515;27;20479;-57
2023/10/19 04:43:49;;;;;;;1.58;0.70;;;13.50;99.90;;;;;;5133781;27;20426;-58
2023/10/19 04:46:18;;;;;;;1.05;0.50;;;13.60;99.90;;;;;;5132971;27;20425;-58
2023/10/19 04:48:45;;;;;;;0.82;0.43;;;13.60;99.90;;;;;;5132956;27;20718;-58
2023/10/19 04:51:12;;;;;;;1.00;0.60;;;13.50;99.90;;;;;;5133885;27;20410;-58
2023/10/19 04:53:39;;;;;;;2.20;0.60;;;13.50;99.90;;;;;;5134518;27;20494;-58
2023/10/19 04:56:09;;;;;;;1.10;0.60;;;13.50;99.90;;;;;;5134669;27;20452;-60
2023/10/19 04:58:38;;;;;;;1.40;0.70;;;13.50;99.90;;;;;;5133539;27;20449;-58
2023/10/19 05:01:05;;;;;;;1.60;0.70;;;13.50;99.90;;;;;;5133432;27;20456;-58
2023/10/19 05:03:32;;;;;;;1.50;0.70;;;13.50;99.90;;;;;;5134158;27;20487;-57
2023/10/19 05:06:02;;;;;;;2.00;0.60;;;13.50;99.90;;;;;;5133928;27;20694;-61
2023/10/19 05:08:29;;;;;;;0.80;0.60;;;13.50;99.90;;;;;;5134376;27;20513;-57
2023/10/19 05:10:58;;;;;;;1.40;0.77;;;13.50;99.90;;;;;;5134485;27;20429;-58
2023/10/19 05:13:26;;;;;;;1.30;0.70;;;13.40;99.90;;;;;;5132689;27;20441;-58
2023/10/19 05:15:56;;;;;;;1.20;0.60;;;13.40;99.90;;;;;;5132880;27;20854;-58
2023/10/19 05:18:23;;;;;;;1.52;0.80;;;13.40;99.90;;;;;;5133152;27;20721;-58
2023/10/19 05:20:55;;;;;;;1.20;0.80;;;13.30;99.90;;;;;;5133304;27;20445;-58
2023/10/19 05:23:23;;;;;;;2.10;0.67;;;13.20;99.90;;;;;;5133177;27;20434;-58
2023/10/19 05:25:52;;;;;;;1.10;0.70;;;13.30;99.90;;;;;;5132563;27;20418;-58
2023/10/19 05:28:21;;;;;;;2.75;0.60;;;13.30;99.90;;;;;;5134047;27;20801;-58
2023/10/19 05:30:49;;;;;;;1.03;0.60;;;13.20;99.90;;;;;;5133604;27;20415;-59
2023/10/19 05:33:20;;;;;;;1.30;0.60;;;13.20;99.90;;;;;;5131650;27;20761;-58
2023/10/19 05:35:48;;;;;;;1.20;0.60;;;13.30;99.90;;;;;;5130842;27;20419;-58
2023/10/19 05:38:15;;;;;;;0.98;0.65;;;13.30;99.90;;;;;;5131456;27;20482;-58
2023/10/19 05:40:43;;;;;;;1.20;0.65;;;13.30;99.90;;;;;;5131165;27;20833;-59
2023/10/19 05:43:10;;;;;;;2.10;0.60;;;13.30;99.90;;;;;;5129449;27;20802;-59
2023/10/19 05:45:37;;;;;;;1.90;0.60;;;13.30;99.90;;;;;;5130283;27;20414;-58
2023/10/19 05:48:06;;;;;;;1.88;0.70;;;13.30;99.90;;;;;;5133407;27;20467;-58
2023/10/19 05:50:35;;;;;;;1.40;0.70;;;13.30;99.90;;;;;;5135686;27;20429;-59
2023/10/19 05:53:02;;;;;;;0.90;0.70;;;13.30;99.90;;;;;;5137480;27;20498;-59
2023/10/19 05:55:30;;;;;;;1.00;0.60;;;13.40;99.90;;;;;;5135358;27;20440;-59
2023/10/19 05:57:57;;;;;;;1.00;0.60;;;13.40;99.90;;;;;;5139548;27;20422;-58
2023/10/19 06:00:29;;;;;;;2.10;0.70;;;13.40;99.90;;;;;;5137783;27;20538;-58
2023/10/19 06:02:57;;;;;;;1.83;0.70;;;13.40;99.90;;;;;;5136577;27;20525;-58
2023/10/19 06:05:24;;;;;;;0.88;0.50;;;13.50;99.90;;;;;;5137002;27;20483;-58
2023/10/19 06:07:53;;;;;;;1.30;0.70;;;13.50;99.90;;;;;;5137189;27;20441;-58
2023/10/19 06:10:22;;;;;;;1.77;0.60;;;13.50;99.90;;;;;;5136673;27;20430;-58
2023/10/19 06:12:50;;;;;;;1.50;0.60;;;13.60;99.90;;;;;;5139028;27;20410;-58
2023/10/19 06:15:20;;;;;;;2.00;0.70;;;13.60;99.90;;;;;;5138010;27;20411;-58
2023/10/19 06:17:49;;;;;;;1.60;0.70;;;13.70;99.90;;;;;;5136442;27;20478;-58
2023/10/19 06:23:04;;;;;;;3.10;1.30;;;13.70;99.90;;;;;;5137267;27;20886;-58
2023/10/19 06:25:31;;;;;;;3.30;1.40;;;13.60;99.90;;;;;;5137029;27;20429;-58
2023/10/19 06:27:59;;;;;;;2.63;1.30;;;13.50;99.90;;;;;;5115919;28;20424;-58
2023/10/19 06:30:27;;;;;;;2.60;1.63;;;13.50;99.90;;;;;;5116953;27;20408;-58
2023/10/19 06:32:56;;;;;;;3.67;1.83;;;13.50;99.90;;;;;;5116340;28;20427;-58
2023/10/19 06:35:24;;;;;;;4.10;1.70;;;13.50;99.90;;;;;;5127798;27;20429;-57
2023/10/19 06:37:51;;;;;;;5.32;1.70;;;13.40;99.90;;;;;;5136763;27;20513;-58
2023/10/19 06:40:20;;;;;;;3.60;1.77;;;13.30;99.90;;;;;;5136178;27;20837;-57
2023/10/19 06:42:47;;;;;;;5.50;2.30;;;13.20;99.90;;;;;;5137359;27;20881;-58
2023/10/19 06:45:15;;;;;;;4.45;2.53;;;13.20;99.90;;;;;;5135999;27;20459;-57
2023/10/19 06:47:44;;;;;;;5.30;2.22;;;13.10;99.90;;;;;;5133150;27;20437;-55
2023/10/19 06:50:12;;;;;;;4.00;2.42;;;13.20;99.90;;;;;;5132514;27;20430;-56
2023/10/19 06:52:40;;;;;;;6.10;2.40;;;13.10;99.90;;;;;;5130227;27;20453;-59
2023/10/19 06:55:13;;;;;;;4.80;2.10;;;13.20;99.90;;;;;;5134000;27;20443;-57
2023/10/19 06:57:43;;;;;;;3.85;2.60;;;13.30;99.90;;;;;;5135402;27;20418;-56
2023/10/19 07:00:16;;;;;;;4.55;2.30;;;13.40;99.90;;;;;;5134285;27;20466;-57
2023/10/19 07:02:43;;;;;;;4.13;2.15;;;13.40;99.90;;;;;;5135525;27;20726;-56
2023/10/19 07:05:11;;;;;;;7.72;2.85;;;13.50;99.90;;;;;;5136439;27;20418;-57
2023/10/19 07:07:40;;;;;;;6.22;3.28;;;13.50;99.90;;;;;;5136566;27;20777;-57
2023/10/19 07:10:09;;;;;;;4.38;2.90;;;13.50;99.90;;;;;;5135324;27;21125;-57
2023/10/19 07:12:36;;;;;;;9.20;3.67;;;13.40;99.90;;;;;;5120929;27;20491;-57
2023/10/19 07:15:07;;;;;;;5.78;2.85;;;13.30;99.90;;;;;;5136829;27;20415;-57
2023/10/19 07:17:34;;;;;;;5.85;3.13;;;13.10;99.90;;;;;;5137136;27;20545;-56
2023/10/19 07:20:03;;;;;;;7.57;3.78;;;13.10;99.90;;;;;;5135791;27;20430;-58
2023/10/19 07:22:31;;;;;;;5.10;3.00;;;13.10;99.90;;;;;;5135985;27;20430;-58
2023/10/19 07:24:59;;;;;;;7.00;2.83;;;13.10;99.90;;;;;;5129141;27;20438;-58
2023/10/19 07:27:28;;;;;;;3.70;2.55;;;13.10;99.90;;;;;;5132294;27;20733;-58
2023/10/19 07:29:56;;;;;;;7.30;2.58;;;13.20;99.90;;;;;;5128086;27;20432;-58
2023/10/19 07:32:24;;;;;;;6.20;2.63;;;13.40;99.90;;;;;;5112825;28;20421;-58
2023/10/19 07:34:51;;;;;;;5.28;3.03;;;13.40;99.90;;;;;;5122161;27;20468;-58
2023/10/19 07:37:18;;;;;;;4.93;2.28;;;13.50;99.90;;;;;;5134856;27;20429;-57
2023/10/19 07:39:52;;;;;;;6.05;2.92;;;13.50;99.90;;;;;;5130795;27;20438;-58
2023/10/19 07:42:21;;;;;;;4.70;2.58;;;13.50;99.90;;;;;;5134155;27;20463;-58
2023/10/19 07:44:48;;;;;;;3.90;2.60;;;13.60;99.90;;;;;;5134728;27;20917;-58
2023/10/19 07:47:16;;;;;;;8.30;3.20;;;13.60;99.90;;;;;;5134022;27;20445;-57
2023/10/19 07:49:44;;;;;;;5.45;3.13;;;13.60;99.90;;;;;;5133187;27;20418;-57
2023/10/19 07:52:11;;;;;;;6.45;3.35;;;13.60;99.90;;;;;;5133110;27;20442;-58
2023/10/19 07:54:38;;;;;;;6.53;3.65;;;13.70;99.90;;;;;;5133621;27;20480;-58
2023/10/19 07:57:06;;;;;;;5.78;3.13;;;13.70;99.90;;;;;;5132857;27;20437;-57
2023/10/19 07:59:33;;;;;;;6.80;3.70;;;13.70;99.90;;;;;;5133438;27;20435;-58
2023/10/19 08:02:03;;;;;;;5.63;3.30;;;13.70;99.90;;;;;;5131755;27;20501;-57
2023/10/19 08:04:31;;;;;;;5.60;3.00;;;13.70;99.90;;;;;;5133221;27;20768;-57
2023/10/19 08:07:02;;;;;;;7.35;2.92;;;13.70;99.90;;;;;;5134781;27;20418;-57
2023/10/19 08:09:31;;;;;;;6.05;3.40;;;13.80;99.90;;;;;;5134400;27;20891;-57
2023/10/19 08:11:59;;;;;;;5.47;2.90;;;13.90;99.90;;;;;;5131991;27;20434;-57
2023/10/19 08:14:26;;;;;;;5.10;3.17;;;13.90;99.90;;;;;;5132712;27;20744;-57
2023/10/19 08:16:54;;;;;;;6.68;3.05;;;13.90;99.90;;;;;;5131240;27;20434;-58
2023/10/19 08:19:21;;;;;;;7.10;3.03;;;13.90;99.90;;;;;;5131564;27;20437;-58
2023/10/19 08:21:48;;;;;;;4.70;2.10;;;14.10;99.90;;;;;;5133339;27;20495;-58
2023/10/19 08:24:17;;;;;;;5.20;2.80;;;14.20;99.90;;;;;;5129332;27;20475;-57
2023/10/19 08:26:46;;;;;;;4.78;2.20;;;14.30;99.90;;;;;;5134800;27;20419;-57
2023/10/19 08:29:13;;;;;;;4.27;2.20;;;14.40;99.90;;;;;;5134180;27;20479;-57
2023/10/19 08:31:41;;;;;;;4.07;2.42;;;14.60;99.90;;;;;;5129500;27;20487;-58
2023/10/19 08:34:09;;;;;;;6.13;3.47;;;14.70;99.90;;;;;;5116663;27;20773;-57
2023/10/19 08:36:37;;;;;;;4.10;2.30;;;14.80;99.90;;;;;;5131150;27;20431;-56
2023/10/19 08:39:05;;;;;;;3.97;1.90;;;14.90;99.90;;;;;;5132718;27;20430;-60
2023/10/19 08:41:36;;;;;;;7.82;3.13;;;15.00;99.90;;;;;;5129768;27;20440;-58
2023/10/19 08:44:04;;;;;;;5.77;2.07;;;15.20;99.90;;;;;;5132902;27;20838;-57
2023/10/19 08:46:31;;;;;;;2.88;1.70;;;15.30;99.90;;;;;;5131201;27;20467;-57
2023/10/19 08:48:59;;;;;;;3.15;1.77;;;15.40;99.90;;;;;;5129071;27;20426;-58
2023/10/19 08:51:26;;;;;;;3.30;1.60;;;15.50;99.90;;;;;;5133363;27;20429;-58
2023/10/19 08:53:55;;;;;;;1.83;1.00;;;15.60;99.90;;;;;;5135115;27;20418;-58
2023/10/19 08:56:23;;;;;;;3.15;1.00;;;15.70;99.90;;;;;;5128009;27;20428;-57
2023/10/19 08:58:52;;;;;;;1.80;1.00;;;15.60;99.90;;;;;;5113465;28;20511;-58
2023/10/19 09:01:23;;;;;;;2.80;1.00;;;15.60;99.90;;;;;;5115185;27;20746;-58
2023/10/19 09:03:51;;;;;;;1.80;0.90;;;15.70;99.90;;;;;;5133427;27;20931;-58
2023/10/19 09:06:18;;;;;;;4.38;1.20;;;15.70;99.90;;;;;;5118070;27;20498;-58
2023/10/19 09:08:49;;;;;;;2.47;0.90;;;15.80;99.90;;;;;;5127255;27;20522;-57
2023/10/19 09:11:18;;;;;;;1.70;0.80;;;15.90;99.90;;;;;;5128365;27;20557;-58
2023/10/19 09:13:47;;;;;;;1.50;0.80;;;16.10;99.90;;;;;;5130707;27;20427;-58
2023/10/19 09:16:16;;;;;;;1.20;0.80;;;16.20;99.90;;;;;;5131251;27;20525;-58
2023/10/19 09:18:44;;;;;;;2.40;0.80;;;16.40;99.90;;;;;;5131511;27;20430;-58
2023/10/19 09:21:12;;;;;;;1.88;0.70;;;16.50;99.90;;;;;;5128140;27;20452;-58
2023/10/19 09:23:41;;;;;;;2.10;0.70;;;16.60;99.90;;;;;;5132061;27;20422;-58
2023/10/19 09:26:08;;;;;;;1.40;0.70;;;16.60;99.90;;;;;;5131303;27;20445;-58
2023/10/19 09:28:37;;;;;;;1.50;0.60;;;16.70;99.90;;;;;;5133234;27;20426;-57
2023/10/19 09:31:05;;;;;;;0.90;0.70;;;16.80;99.90;;;;;;5127768;27;20463;-58
2023/10/19 09:33:34;;;;;;;1.20;0.80;;;17.00;99.90;;;;;;5127441;27;20434;-57
2023/10/19 09:36:04;;;;;;;2.88;0.80;;;17.10;99.90;;;;;;5130485;27;20426;-58
2023/10/19 09:38:32;;;;;;;1.00;0.70;;;17.10;99.90;;;;;;5131998;27;20430;-58
2023/10/19 09:41:01;;;;;;;1.88;0.90;;;17.30;99.90;;;;;;5130922;27;20430;-58
2023/10/19 09:43:38;;;;;;;3.00;0.80;;;17.30;99.90;;;;;;5131312;27;20474;-58
2023/10/19 09:46:09;;;;;;;1.20;0.70;;;17.40;99.90;;;;;;5128612;27;20472;-58
2023/10/19 09:48:41;;;;;;;1.00;0.68;;;17.50;99.90;;;;;;5130580;27;20686;-59
2023/10/19 09:51:10;;;;;;;2.20;0.80;;;17.60;99.90;;;;;;5125696;27;20438;-58
2023/10/19 09:53:40;;;;;;;1.40;0.80;;;17.70;99.90;;;;;;5128664;27;20496;-58
2023/10/19 09:56:11;;;;;;;2.95;0.90;;;17.70;99.90;;;;;;5131481;27;20888;-58
2023/10/19 09:58:45;;;;;;;1.50;0.70;;;17.80;99.90;;;;;;5132631;27;20475;-58
2023/10/19 10:01:14;;;;;;;1.60;0.80;;;17.90;99.90;;;;;;5130299;27;20652;-57
2023/10/19 10:03:48;;;;;;;1.10;0.70;;;18.00;99.90;;;;;;5128462;27;20582;-58
2023/10/19 10:06:20;;;;;;;1.10;0.70;;;18.00;99.90;;;;;;5129800;27;20568;-58
2023/10/19 10:08:48;;;;;;;1.40;0.80;;;18.10;99.90;;;;;;5130237;27;20418;-58
2023/10/19 10:11:21;;;;;;;0.85;0.60;;;18.10;99.90;;;;;;5130664;27;20486;-58
2023/10/19 10:13:51;;;;;;;1.40;0.70;;;18.10;99.90;;;;;;5129464;27;20631;-58
2023/10/19 10:16:20;;;;;;;1.50;0.50;;;18.00;99.90;;;;;;5130396;27;20463;-57
2023/10/19 10:18:51;;;;;;;1.20;0.60;;;18.00;99.90;;;;;;5131690;27;20426;-58
2023/10/19 10:21:20;;;;;;;1.30;0.70;;;18.00;99.90;;;;;;5131222;27;20444;-58
2023/10/19 10:23:52;;;;;;;1.10;0.80;;;18.00;99.90;;;;;;5133046;27;20430;-58
2023/10/19 10:26:24;;;;;;;1.10;0.70;;;18.00;99.90;;;;;;5131886;28;20779;-58
2023/10/19 10:29:19;;;;;;;1.80;0.88;;;18.00;99.90;;;;;;5129358;27;20471;-58
2023/10/19 10:31:47;;;;;;;1.30;0.90;;;17.90;99.90;;;;;;5130899;27;20411;-58
2023/10/19 10:34:46;;;;;;;1.50;1.02;;;17.80;99.90;;;;;;5131847;27;20479;-58
2023/10/19 10:37:14;;;;;;;2.13;0.90;;;17.80;99.90;;;;;;5132966;27;20901;-59
2023/10/19 10:39:42;;;;;;;1.42;1.00;;;17.80;99.90;;;;;;5136285;27;20426;-59
2023/10/19 10:42:10;;;;;;;1.67;0.90;;;17.80;99.90;;;;;;5135780;27;20453;-59
2023/10/19 10:44:39;;;;;;;2.08;0.95;;;17.70;99.90;;;;;;5136727;27;20434;-59
2023/10/19 10:47:09;;;;;;;2.80;1.10;;;17.60;99.90;;;;;;5137792;27;20414;-59
2023/10/19 10:49:49;;;;;;;1.70;0.90;;;17.50;99.90;;;;;;5135468;27;20438;-59
2023/10/19 10:52:28;;;;;;;2.30;0.97;;;17.50;99.90;;;;;;5136304;27;20406;-59
2023/10/19 10:54:56;;;;;;;1.40;0.90;;;17.50;99.90;;;;;;5136451;27;20475;-56
2023/10/19 10:57:24;;;;;;;3.73;0.90;;;17.50;99.90;;;;;;5135123;27;20532;-59
2023/10/19 11:00:04;;;;;;;1.67;0.90;;;17.60;99.90;;;;;;5129987;27;20505;-59
2023/10/19 11:02:32;;;;;;;1.67;0.90;;;17.50;99.90;;;;;;5135268;27;20458;-59
2023/10/19 11:05:00;;;;;;;1.20;0.80;;;17.50;99.90;;;;;;5132294;27;20458;-58
2023/10/19 11:07:27;;;;;;;1.20;0.70;;;17.50;99.90;;;;;;5133679;27;20435;-58
2023/10/19 11:09:54;;;;;;;1.60;0.63;;;17.50;99.90;;;;;;5135730;27;20427;-59
2023/10/19 11:12:21;;;;;;;1.90;0.80;;;17.60;99.90;;;;;;5137014;27;20430;-59
2023/10/19 11:14:55;;;;;;;2.00;0.90;;;17.50;99.90;;;;;;5135435;27;20861;-59
2023/10/19 11:17:28;;;;;;;1.70;0.70;;;17.50;99.90;;;;;;5134572;27;20495;-59
2023/10/19 11:19:57;;;;;;;1.23;0.80;;;17.50;99.90;;;;;;5129873;27;20505;-60
2023/10/19 11:22:26;;;;;;;1.30;0.70;;;17.50;99.90;;;;;;5133872;27;20845;-58
2023/10/19 11:24:54;;;;;;;1.38;0.70;;;17.40;99.90;;;;;;5132118;27;20769;-57
2023/10/19 11:27:27;;;;;;;2.40;0.70;;;17.40;99.90;;;;;;5134385;27;20431;-59
2023/10/19 11:29:58;;;;;;;0.95;0.70;;;17.40;99.90;;;;;;5129163;27;20794;-59
2023/10/19 11:32:25;;;;;;;1.20;0.60;;;17.40;99.90;;;;;;5132023;27;20423;-59
2023/10/19 11:34:53;;;;;;;0.90;0.52;;;17.30;99.90;;;;;;5131564;27;20486;-59
2023/10/19 11:37:20;;;;;;;1.50;0.50;;;17.20;99.90;;;;;;5132230;27;20499;-57
2023/10/19 11:39:49;;;;;;;0.90;0.50;;;17.20;99.90;;;;;;5133391;27;20438;-59
2023/10/19 11:42:18;;;;;;;0.90;0.50;;;17.00;99.90;;;;;;5134626;27;20427;-60
2023/10/19 11:44:45;;;;;;;0.90;0.50;;;16.90;99.90;;;;;;5134478;27;20702;-60
2023/10/19 11:47:13;;;;;;;0.70;0.50;;;16.80;99.90;;;;;;5131245;27;20569;-60
2023/10/19 11:49:40;;;;;;;0.80;0.50;;;16.80;99.90;;;;;;5131564;27;20609;-59
2023/10/19 11:52:07;;;;;;;0.80;0.50;;;16.70;99.90;;;;;;5135770;27;20414;-60
2023/10/19 11:54:34;;;;;;;1.30;0.60;;;16.70;99.90;;;;;;5135372;27;20758;-60
2023/10/19 11:57:03;;;;;;;0.90;0.50;;;16.70;99.90;;;;;;5134519;27;20493;-60
2023/10/19 11:59:30;;;;;;;1.53;0.60;;;16.60;99.90;;;;;;5134256;27;20475;-60
2023/10/19 12:01:58;;;;;;;0.88;0.40;;;16.60;99.90;;;;;;5130575;27;20874;-60
2023/10/19 12:04:25;;;;;;;1.10;0.60;;;16.60;99.90;;;;;;5133943;27;20859;-60
2023/10/19 12:06:53;;;;;;;0.90;0.50;;;16.60;99.90;;;;;;5134623;27;20466;-61
2023/10/19 12:09:24;;;;;;;1.27;0.50;;;16.60;99.90;;;;;;5134966;27;20484;-61
2023/10/19 12:11:53;;;;;;;2.47;0.60;;;16.60;99.90;;;;;;5133292;27;20430;-61
2023/10/19 12:14:22;;;;;;;1.30;0.60;;;16.70;99.90;;;;;;5129110;27;20454;-60
2023/10/19 12:16:49;;;;;;;0.90;0.60;;;16.60;99.90;;;;;;5131728;27;20426;-60
2023/10/19 12:19:18;;;;;;;1.27;0.50;;;16.50;99.90;;;;;;5130689;27;20464;-57
2023/10/19 12:21:45;;;;;;;1.00;0.60;;;16.40;99.90;;;;;;5128465;27;20430;-60
2023/10/19 12:24:12;;;;;;;1.10;0.60;;;16.30;99.90;;;;;;5132871;27;20430;-59
2023/10/19 12:26:39;;;;;;;1.77;0.52;;;16.30;99.90;;;;;;5133499;27;21025;-59
2023/10/19 12:29:10;;;;;;;0.98;0.50;;;16.30;99.90;;;;;;5133622;27;20491;-59
2023/10/19 12:31:40;;;;;;;0.80;0.50;;;16.30;99.90;;;;;;5134506;27;20418;-60
2023/10/19 12:34:07;;;;;;;0.60;0.40;;;16.30;99.90;;;;;;5135269;27;20549;-59
2023/10/19 12:36:35;;;;;;;1.52;0.50;;;16.20;99.90;;;;;;5132421;27;20434;-59
2023/10/19 12:39:04;;;;;;;1.30;0.50;;;16.20;99.90;;;;;;5133364;27;20418;-59
2023/10/19 12:41:32;;;;;;;1.50;0.60;;;16.20;99.90;;;;;;5121252;27;20430;-60
2023/10/19 12:44:02;;;;;;;1.10;0.60;;;16.20;99.90;;;;;;5127918;27;20462;-57
2023/10/19 12:46:29;;;;;;;1.00;0.60;;;16.20;99.90;;;;;;5134208;27;20418;-58
2023/10/19 12:48:58;;;;;;;1.00;0.60;;;16.20;99.90;;;;;;5131688;27;20442;-57
2023/10/19 12:51:26;;;;;;;0.90;0.50;;;16.20;99.90;;;;;;5128905;27;20456;-58
2023/10/19 12:53:53;;;;;;;1.20;0.60;;;16.20;99.90;;;;;;5134062;27;20779;-58
2023/10/19 12:56:21;;;;;;;1.83;0.60;;;16.10;99.90;;;;;;5134333;27;20488;-58
2023/10/19 12:58:49;;;;;;;1.02;0.60;;;16.10;99.90;;;;;;5132868;27;20438;-58
2023/10/19 13:01:18;;;;;;;0.70;0.50;;;16.10;99.90;;;;;;5129475;27;20434;-58